Vunisea, Fiji
Current Conditions -  °F | °C
As of 8:00 PM on Sunday 26 Oct 2014 (Local Time) from NFNA Reporting Station
Overcast Overcast  
Wind Chill: 23°   Ceiling: 2000
Heat Index: 23°   Visibility: 6mi
Dew Point: 19°   Wind: 3mph
Humidity: 78%   Direction: NA
Pressure: 29.94"   Gusts: NA
Location:  19.05°S, 178.17°E
Report Text: NFNA 260800Z VRB03KT 9999 BKN020 BKN048 OVC120 23/19 Q1014
Loading
Personal Weather Stations






























Interactive Weather Map
Tropical Storm Tracking
New forecast layout! Learn more

10-Day Weather Forecast

Advertisements
Track Severe Weather on mobile